createdAt,value
2019-03-22T00:01:18.329Z,41.40
2019-03-22T00:06:24.036Z,45.57
2019-03-22T00:11:48.027Z,55.63
2019-03-22T00:16:53.926Z,42.70
2019-03-22T00:21:59.565Z,49.83
2019-03-22T00:27:30.745Z,36.70
2019-03-22T00:32:36.564Z,39.77
2019-03-22T00:37:42.874Z,47.60
2019-03-22T00:42:48.578Z,39.50
2019-03-22T00:47:54.353Z,38.63
2019-03-22T00:52:59.954Z,49.67
2019-03-22T00:58:05.854Z,42.97
2019-03-22T01:03:11.800Z,40.80
2019-03-22T01:08:17.395Z,43.47
2019-03-22T01:13:23.392Z,41.67
2019-03-22T01:18:29.476Z,46.20
2019-03-22T01:23:34.997Z,42.10
2019-03-22T01:28:40.891Z,45.57
2019-03-22T01:33:46.536Z,40.17
2019-03-22T01:38:52.663Z,43.57
2019-03-22T01:43:58.711Z,43.23
2019-03-22T01:49:04.793Z,50.87
2019-03-22T01:54:10.647Z,44.93
2019-03-22T01:59:16.402Z,52.80
2019-03-22T02:04:22.166Z,39.43
2019-03-22T02:09:29.167Z,54.23
2019-03-22T02:14:35.859Z,43.40
2019-03-22T02:19:42.352Z,53.73
2019-03-22T02:24:48.217Z,45.63
2019-03-22T02:29:53.854Z,51.53
2019-03-22T02:34:59.734Z,40.37
2019-03-22T02:40:08.240Z,46.47
2019-03-22T02:45:16.105Z,43.27
2019-03-22T02:50:22.644Z,51.87
2019-03-22T02:55:28.680Z,49.03
2019-03-22T03:00:35.045Z,49.37
2019-03-22T03:05:41.204Z,44.87
2019-03-22T03:10:46.983Z,38.73
2019-03-22T03:15:52.339Z,41.33
2019-03-22T03:20:57.876Z,40.23
2019-03-22T03:26:03.697Z,36.57
2019-03-22T03:31:09.768Z,46.67
2019-03-22T03:36:15.665Z,37.83
2019-03-22T03:41:21.408Z,38.40
2019-03-22T03:46:27.208Z,46.70
2019-03-22T03:51:33.423Z,42.83
2019-03-22T03:56:38.985Z,49.30
2019-03-22T04:01:44.454Z,35.00
2019-03-22T04:06:50.234Z,46.90
2019-03-22T04:11:55.955Z,43.73
2019-03-22T04:17:01.419Z,52.37
2019-03-22T04:22:07.303Z,42.67
2019-03-22T04:27:13.037Z,50.50
2019-03-22T04:32:18.783Z,41.40
2019-03-22T04:37:24.673Z,37.27
2019-03-22T04:42:30.424Z,35.97
2019-03-22T04:47:36.959Z,43.43
2019-03-22T04:52:42.682Z,34.40
2019-03-22T04:57:49.262Z,40.27
2019-03-22T05:02:55.852Z,31.47
2019-03-22T05:08:02.244Z,28.50
2019-03-22T05:13:10.686Z,34.00
2019-03-22T05:18:16.902Z,27.60
2019-03-22T05:23:24.708Z,29.20
2019-03-22T05:28:31.860Z,19.20
2019-03-22T05:33:37.487Z,26.63
2019-03-22T05:38:42.738Z,17.83
2019-03-22T05:43:48.240Z,26.13
2019-03-22T05:48:54.092Z,19.53
2019-03-22T05:53:59.582Z,22.07
2019-03-22T05:59:05.221Z,17.80
2019-03-22T06:04:10.994Z,20.83
2019-03-22T06:09:16.802Z,16.83
2019-03-22T06:14:22.361Z,15.63
2019-03-22T06:19:27.626Z,12.93
2019-03-22T06:24:32.845Z,13.70
2019-03-22T06:29:39.144Z,17.20
2019-03-22T06:34:44.424Z,14.53
2019-03-22T06:39:49.377Z,13.97
2019-03-22T06:44:54.332Z,12.37
2019-03-22T06:49:59.540Z,14.13
2019-03-22T06:55:07.076Z,12.40
2019-03-22T07:00:14.059Z,10.97
2019-03-22T07:05:19.403Z,9.60
2019-03-22T07:10:24.776Z,9.80
2019-03-22T07:15:29.929Z,12.80
2019-03-22T07:20:35.307Z,7.27
2019-03-22T07:25:40.662Z,8.10
2019-03-22T07:30:46.526Z,9.03
2019-03-22T07:35:51.666Z,9.50
2019-03-22T07:40:56.756Z,5.53
2019-03-22T07:46:02.807Z,6.23
2019-03-22T07:51:08.376Z,4.33
2019-03-22T07:56:13.991Z,5.53
2019-03-22T08:01:18.981Z,4.43
2019-03-22T08:06:24.195Z,3.70
2019-03-22T08:11:29.918Z,5.23
2019-03-22T08:16:35.058Z,3.97
2019-03-22T08:21:40.272Z,4.43
2019-03-22T08:26:45.595Z,3.47
2019-03-22T08:31:51.278Z,5.60
2019-03-22T08:36:56.458Z,3.27
2019-03-22T08:42:01.328Z,6.40
2019-03-22T08:47:06.685Z,30.70
2019-03-22T08:52:11.693Z,4.60
2019-03-22T08:57:16.717Z,6.80
2019-03-22T09:02:22.146Z,6.17
2019-03-22T09:07:27.660Z,6.07
2019-03-22T09:12:32.767Z,7.30
2019-03-22T09:17:37.740Z,7.17
2019-03-22T09:22:43.527Z,6.10
2019-03-22T09:27:48.690Z,5.43
2019-03-22T09:32:53.822Z,6.30
2019-03-22T09:38:07.819Z,8.53
2019-03-22T09:43:05.604Z,8.10
2019-03-22T09:48:10.907Z,8.27
2019-03-22T09:53:16.551Z,9.70
2019-03-22T09:58:21.807Z,8.10
2019-03-22T10:03:26.917Z,7.63
2019-03-22T10:08:32.196Z,7.50
2019-03-22T10:13:37.326Z,7.60
2019-03-22T10:18:42.275Z,10.40
2019-03-22T10:23:47.567Z,10.20
2019-03-22T10:28:52.918Z,8.17
2019-03-22T10:33:58.324Z,6.57
2019-03-22T10:39:04.418Z,7.93
2019-03-22T10:44:09.598Z,9.90
2019-03-22T10:49:14.513Z,9.83
2019-03-22T10:54:20.230Z,6.83
2019-03-22T10:59:25.706Z,8.40
2019-03-22T11:04:30.717Z,7.90
2019-03-22T11:09:35.783Z,6.67
2019-03-22T11:14:41.294Z,7.33
2019-03-22T11:19:46.759Z,6.90
2019-03-22T11:24:52.203Z,9.17
2019-03-22T11:29:57.405Z,5.43
2019-03-22T11:35:03.486Z,5.20
2019-03-22T11:40:14.622Z,4.50
2019-03-22T11:45:21.598Z,9.70
2019-03-22T11:50:29.027Z,9.80
2019-03-22T11:55:34.958Z,11.70
2019-03-22T12:00:40.280Z,7.57
2019-03-22T12:05:45.331Z,7.70
2019-03-22T12:10:50.859Z,7.70
2019-03-22T12:15:56.087Z,9.20
2019-03-22T12:21:01.748Z,5.83
2019-03-22T12:26:07.333Z,4.90
2019-03-22T12:31:12.849Z,5.60
2019-03-22T12:36:18.632Z,7.53
2019-03-22T12:41:24.348Z,13.80
2019-03-22T12:46:29.987Z,9.03
2019-03-22T12:51:35.351Z,10.60
2019-03-22T12:56:40.458Z,17.90
2019-03-22T13:01:46.123Z,7.30
2019-03-22T13:06:53.179Z,6.20
2019-03-22T13:11:59.104Z,14.80
2019-03-22T13:17:04.891Z,10.40
2019-03-22T13:22:10.341Z,16.63
2019-03-22T13:27:15.698Z,4.47
2019-03-22T13:32:21.548Z,12.43
2019-03-22T13:37:26.905Z,10.67
2019-03-22T13:42:32.702Z,9.80
2019-03-22T13:47:38.731Z,13.27
2019-03-22T13:52:43.712Z,11.50
2019-03-22T13:57:48.897Z,22.40
2019-03-22T14:03:02.893Z,13.93
2019-03-22T14:08:01.371Z,12.07
2019-03-22T14:13:07.785Z,10.03
2019-03-22T14:18:13.776Z,8.07
2019-03-22T14:23:19.517Z,11.70
2019-03-22T14:28:24.766Z,12.20
2019-03-22T14:33:30.633Z,11.17
2019-03-22T14:38:36.043Z,10.73
2019-03-22T14:43:41.521Z,9.97
2019-03-22T14:48:46.447Z,8.70
2019-03-22T14:53:51.918Z,11.83
2019-03-22T14:58:57.514Z,11.67
2019-03-22T15:04:03.247Z,13.20
2019-03-22T15:09:09.331Z,12.53
2019-03-22T15:14:28.141Z,8.97
2019-03-22T15:19:35.244Z,9.90
2019-03-22T15:24:45.236Z,9.00
2019-03-22T15:29:55.336Z,16.10
2019-03-22T15:35:19.421Z,29.13
2019-03-22T15:40:25.003Z,16.57
2019-03-22T15:45:30.485Z,15.47
2019-03-22T15:50:36.270Z,16.80
2019-03-22T15:55:41.656Z,18.33
2019-03-22T16:00:47.013Z,16.53
2019-03-22T16:05:52.573Z,18.30
2019-03-22T16:10:58.303Z,16.93
2019-03-22T16:16:03.565Z,18.30
2019-03-22T16:21:09.584Z,17.30
2019-03-22T16:26:14.861Z,26.47
2019-03-22T16:31:20.646Z,31.53
2019-03-22T16:36:26.279Z,33.37
2019-03-22T16:41:32.147Z,23.70
2019-03-22T16:46:37.891Z,25.60
2019-03-22T16:51:43.436Z,21.57
2019-03-22T16:56:49.387Z,19.60
2019-03-22T17:01:55.024Z,22.80
2019-03-22T17:07:00.867Z,54.33
2019-03-22T17:12:06.228Z,36.70
2019-03-22T17:17:11.431Z,32.03
2019-03-22T17:22:17.284Z,31.07
2019-03-22T17:27:22.784Z,41.93
2019-03-22T17:32:29.476Z,68.23
2019-03-22T17:37:34.951Z,61.93
2019-03-22T17:42:40.705Z,95.20
2019-03-22T17:47:46.289Z,100.77
2019-03-22T17:52:52.265Z,58.87
2019-03-22T17:57:58.219Z,59.67
2019-03-22T18:03:03.434Z,138.13
2019-03-22T18:08:08.645Z,119.97
2019-03-22T18:13:14.963Z,133.33
2019-03-22T18:18:20.976Z,130.47
2019-03-22T18:23:35.397Z,98.63
2019-03-22T18:28:35.798Z,112.17
2019-03-22T18:33:42.155Z,128.00
2019-03-22T18:38:47.716Z,107.80
2019-03-22T18:43:53.219Z,99.23
2019-03-22T18:48:58.963Z,105.07
2019-03-22T18:54:05.062Z,113.47
2019-03-22T18:59:10.433Z,129.83
2019-03-22T19:04:16.080Z,139.43
2019-03-22T19:09:22.733Z,85.83
2019-03-22T19:14:29.321Z,93.53
2019-03-22T19:19:34.954Z,103.07
2019-03-22T19:24:41.754Z,81.07
2019-03-22T19:29:47.994Z,82.73
2019-03-22T19:34:54.646Z,131.10
2019-03-22T19:40:01.672Z,102.00
2019-03-22T19:45:27.581Z,107.23
2019-03-22T19:50:33.769Z,149.80
2019-03-22T19:55:39.442Z,150.70
2019-03-22T20:00:44.603Z,173.43
2019-03-22T20:05:50.716Z,170.20
2019-03-22T20:10:56.086Z,173.47
2019-03-22T20:16:02.081Z,169.37
2019-03-22T20:21:07.977Z,169.37
2019-03-22T20:26:13.748Z,143.20
2019-03-22T20:31:19.610Z,136.87
2019-03-22T20:36:24.975Z,119.00
2019-03-22T20:41:30.032Z,113.80
2019-03-22T20:46:35.356Z,195.27
2019-03-22T20:51:41.104Z,129.37
2019-03-22T20:56:46.432Z,161.07
2019-03-22T21:01:52.071Z,158.40
2019-03-22T21:06:57.518Z,209.90
2019-03-22T21:12:03.968Z,257.90
2019-03-22T21:17:10.572Z,204.67
2019-03-22T21:22:17.131Z,188.93
2019-03-22T21:27:23.738Z,189.83
2019-03-22T21:32:29.133Z,200.73
2019-03-22T21:37:34.428Z,184.67
2019-03-22T21:42:40.993Z,278.83
2019-03-22T21:47:46.580Z,212.83
2019-03-22T21:52:51.905Z,187.20
2019-03-22T21:57:57.615Z,181.67
2019-03-22T22:03:03.883Z,195.60
2019-03-22T22:08:09.415Z,179.90
2019-03-22T22:13:15.089Z,169.27
2019-03-22T22:18:22.043Z,151.73
2019-03-22T22:23:27.695Z,141.73
2019-03-22T22:28:45.565Z,184.10
2019-03-22T22:33:50.831Z,166.03
2019-03-22T22:38:57.539Z,113.07
2019-03-22T22:44:03.733Z,89.30
2019-03-22T22:49:09.164Z,91.43
2019-03-22T22:54:14.943Z,88.93
2019-03-22T22:59:20.093Z,123.73
2019-03-22T23:04:25.456Z,97.57
2019-03-22T23:09:32.318Z,91.63
2019-03-22T23:14:38.986Z,89.43
2019-03-22T23:19:44.470Z,107.13
2019-03-22T23:24:50.551Z,116.20
2019-03-22T23:29:56.099Z,106.43
2019-03-22T23:35:02.169Z,112.30
2019-03-22T23:40:08.174Z,122.37
2019-03-22T23:45:14.321Z,105.13
2019-03-22T23:50:19.765Z,132.70
2019-03-22T23:55:24.822Z,98.40
